createdAt,value
2019-01-30T00:00:33.795Z,0.00
2019-01-30T00:01:33.877Z,0.00
2019-01-30T00:02:33.965Z,0.00
2019-01-30T00:03:34.049Z,0.00
2019-01-30T00:04:34.133Z,0.00
2019-01-30T00:05:34.221Z,0.00
2019-01-30T00:06:34.306Z,0.00
2019-01-30T00:07:34.393Z,0.00
2019-01-30T00:08:34.474Z,0.00
2019-01-30T00:09:34.560Z,0.00
2019-01-30T00:10:34.639Z,0.00
2019-01-30T00:11:34.726Z,0.00
2019-01-30T00:12:34.812Z,0.00
2019-01-30T00:13:34.899Z,0.00
2019-01-30T00:14:34.983Z,0.00
2019-01-30T00:15:35.069Z,0.00
2019-01-30T00:16:35.154Z,0.00
2019-01-30T00:17:35.239Z,0.00
2019-01-30T00:18:35.333Z,0.00
2019-01-30T00:19:35.412Z,0.00
2019-01-30T00:20:35.499Z,0.00
2019-01-30T00:21:35.586Z,0.00
2019-01-30T00:22:35.670Z,0.00
2019-01-30T00:23:35.755Z,0.00
2019-01-30T00:24:35.841Z,0.00
2019-01-30T00:25:35.925Z,0.00
2019-01-30T00:26:36.010Z,0.00
2019-01-30T00:27:36.097Z,0.00
2019-01-30T00:28:36.179Z,0.00
2019-01-30T00:29:36.267Z,0.00
2019-01-30T00:30:36.351Z,0.00
2019-01-30T00:31:36.437Z,0.00
2019-01-30T00:32:36.523Z,0.00
2019-01-30T00:33:36.608Z,0.00
2019-01-30T00:34:36.692Z,0.00
2019-01-30T00:35:36.777Z,0.00
2019-01-30T00:36:36.861Z,0.00
2019-01-30T00:37:36.956Z,0.00
2019-01-30T00:38:37.023Z,0.00
2019-01-30T00:39:37.109Z,0.00
2019-01-30T00:40:37.186Z,0.00
2019-01-30T00:41:37.270Z,0.00
2019-01-30T00:42:37.356Z,0.00
2019-01-30T00:43:37.439Z,0.00
2019-01-30T00:44:37.526Z,0.00
2019-01-30T00:45:37.610Z,0.00
2019-01-30T00:46:37.695Z,0.00
2019-01-30T00:47:37.779Z,0.00
2019-01-30T00:48:37.866Z,0.00
2019-01-30T00:49:37.950Z,0.00
2019-01-30T00:50:38.036Z,0.00
2019-01-30T00:51:38.120Z,0.00
2019-01-30T00:52:38.206Z,0.00
2019-01-30T00:53:38.293Z,0.00
2019-01-30T00:54:38.381Z,0.00
2019-01-30T00:55:38.463Z,0.00
2019-01-30T00:56:38.551Z,0.00
2019-01-30T00:57:38.636Z,0.00
2019-01-30T00:58:38.713Z,0.00
2019-01-30T00:59:38.827Z,0.00
2019-01-30T01:00:38.908Z,0.00
2019-01-30T01:01:38.993Z,0.00
2019-01-30T01:02:39.075Z,0.00
2019-01-30T01:03:39.163Z,0.00
2019-01-30T01:04:39.250Z,0.00
2019-01-30T01:05:39.337Z,0.00
2019-01-30T01:06:39.421Z,0.00
2019-01-30T01:07:39.504Z,0.00
2019-01-30T01:08:39.589Z,0.00
2019-01-30T01:09:39.674Z,0.00
2019-01-30T01:10:39.752Z,0.00
2019-01-30T01:11:39.848Z,0.00
2019-01-30T01:12:39.930Z,0.00
2019-01-30T01:13:40.014Z,0.00
2019-01-30T01:14:40.101Z,0.00
2019-01-30T01:15:40.185Z,0.00
2019-01-30T01:16:40.272Z,0.00
2019-01-30T01:17:40.352Z,0.00
2019-01-30T01:18:40.439Z,0.00
2019-01-30T01:19:40.527Z,0.00
2019-01-30T01:20:40.609Z,0.00
2019-01-30T01:21:40.695Z,0.00
2019-01-30T01:22:40.777Z,0.00
2019-01-30T01:23:40.863Z,0.00
2019-01-30T01:24:40.948Z,0.00
2019-01-30T01:25:41.032Z,0.00
2019-01-30T01:26:41.116Z,0.00
2019-01-30T01:27:41.202Z,0.00
2019-01-30T01:28:41.285Z,0.00
2019-01-30T01:29:41.374Z,0.00
2019-01-30T01:30:41.456Z,0.00
2019-01-30T01:31:41.543Z,0.00
2019-01-30T01:32:41.628Z,0.00
2019-01-30T01:33:41.713Z,0.00
2019-01-30T01:34:41.799Z,0.00
2019-01-30T01:35:41.883Z,0.00
2019-01-30T01:36:41.968Z,0.00
2019-01-30T01:37:42.052Z,0.00
2019-01-30T01:38:42.136Z,0.00
2019-01-30T01:39:42.225Z,0.00
2019-01-30T01:40:42.306Z,0.00
2019-01-30T01:41:42.395Z,0.00
2019-01-30T01:42:42.481Z,0.00
2019-01-30T01:43:42.566Z,0.00
2019-01-30T01:44:42.651Z,0.00
2019-01-30T01:45:42.734Z,0.00
2019-01-30T01:46:42.820Z,0.00
2019-01-30T01:47:42.903Z,0.00
2019-01-30T01:48:42.988Z,0.00
2019-01-30T01:49:43.076Z,0.00
2019-01-30T01:50:43.158Z,0.00
2019-01-30T01:51:43.241Z,0.00
2019-01-30T01:52:43.328Z,0.00
2019-01-30T01:53:43.413Z,0.00
2019-01-30T01:54:43.497Z,0.00
2019-01-30T01:55:43.581Z,0.00
2019-01-30T01:56:43.666Z,0.00
2019-01-30T01:57:43.749Z,0.00
2019-01-30T01:58:43.838Z,0.00
2019-01-30T01:59:43.923Z,0.00
2019-01-30T02:00:44.006Z,0.00
2019-01-30T02:01:44.091Z,0.00
2019-01-30T02:02:44.176Z,0.00
2019-01-30T02:03:44.258Z,0.00
2019-01-30T02:04:44.344Z,0.00
2019-01-30T02:05:44.429Z,0.00
2019-01-30T02:06:44.512Z,0.00
2019-01-30T02:07:44.594Z,0.00
2019-01-30T02:08:44.681Z,0.00
2019-01-30T02:09:44.766Z,0.00
2019-01-30T02:10:44.850Z,0.00
2019-01-30T02:11:44.932Z,0.00
2019-01-30T02:12:45.015Z,0.00
2019-01-30T02:13:45.101Z,0.00
2019-01-30T02:14:45.186Z,0.00
2019-01-30T02:15:45.271Z,0.00
2019-01-30T02:16:45.356Z,0.00
2019-01-30T02:17:45.447Z,0.00
2019-01-30T02:18:45.529Z,0.00
2019-01-30T02:19:45.701Z,0.00
2019-01-30T02:20:45.696Z,0.00
2019-01-30T02:21:45.782Z,0.00
2019-01-30T02:22:45.862Z,0.00
2019-01-30T02:23:45.957Z,0.00
2019-01-30T02:24:46.038Z,0.00
2019-01-30T02:25:46.125Z,0.00
2019-01-30T02:26:46.216Z,0.00
2019-01-30T02:27:46.291Z,0.00
2019-01-30T02:28:46.373Z,0.00
2019-01-30T02:29:46.460Z,0.00
2019-01-30T02:30:47.756Z,0.00
2019-01-30T02:31:46.625Z,0.00
2019-01-30T02:32:46.706Z,0.00
2019-01-30T02:33:46.793Z,4.00
2019-01-30T02:34:46.877Z,0.00
2019-01-30T02:35:46.960Z,0.00
2019-01-30T02:36:47.042Z,0.00
2019-01-30T02:37:47.129Z,0.00
2019-01-30T02:38:47.214Z,0.00
2019-01-30T02:39:47.297Z,0.00
2019-01-30T02:40:47.377Z,0.00
2019-01-30T02:41:47.460Z,0.00
2019-01-30T02:42:47.546Z,0.00
2019-01-30T02:43:47.630Z,0.00
2019-01-30T02:44:47.713Z,0.00
2019-01-30T02:45:47.804Z,0.00
2019-01-30T02:46:47.886Z,0.00
2019-01-30T02:47:47.974Z,0.00
2019-01-30T02:48:48.057Z,0.00
2019-01-30T02:49:48.142Z,0.00
2019-01-30T02:50:48.227Z,0.00
2019-01-30T02:51:48.309Z,0.00
2019-01-30T02:52:48.396Z,0.00
2019-01-30T02:53:48.477Z,0.00
2019-01-30T02:54:48.565Z,0.00
2019-01-30T02:55:48.648Z,0.00
2019-01-30T02:56:48.732Z,0.00
2019-01-30T02:57:48.816Z,0.00
2019-01-30T02:58:48.899Z,0.00
2019-01-30T02:59:48.981Z,0.00
2019-01-30T03:00:58.764Z,0.00
2019-01-30T03:01:49.156Z,0.00
2019-01-30T03:02:49.234Z,0.00
2019-01-30T03:03:49.318Z,0.00
2019-01-30T03:04:49.410Z,0.00
2019-01-30T03:05:49.488Z,0.00
2019-01-30T03:06:49.574Z,0.00
2019-01-30T03:07:49.681Z,0.00
2019-01-30T03:08:49.747Z,0.00
2019-01-30T03:09:49.827Z,0.00
2019-01-30T03:10:49.911Z,0.00
2019-01-30T03:11:49.996Z,0.00
2019-01-30T03:12:50.083Z,0.00
2019-01-30T03:13:50.170Z,0.00
2019-01-30T03:14:50.258Z,0.00
2019-01-30T03:15:50.343Z,0.00
2019-01-30T03:16:50.424Z,0.00
2019-01-30T03:17:50.507Z,0.00
2019-01-30T03:18:50.590Z,0.00
2019-01-30T03:19:50.680Z,0.00
2019-01-30T03:20:50.762Z,0.00
2019-01-30T03:21:50.851Z,4.00
2019-01-30T03:22:50.935Z,0.00
2019-01-30T03:23:51.020Z,0.00
2019-01-30T03:24:51.103Z,0.00
2019-01-30T03:25:51.189Z,0.00
2019-01-30T03:26:51.274Z,0.00
2019-01-30T03:27:51.357Z,0.00
2019-01-30T03:28:51.442Z,0.00
2019-01-30T03:29:51.524Z,0.00
2019-01-30T03:30:51.618Z,0.00
2019-01-30T03:31:51.700Z,0.00
2019-01-30T03:32:51.784Z,0.00
2019-01-30T03:33:51.865Z,0.00
2019-01-30T03:34:51.949Z,0.00
2019-01-30T03:35:52.036Z,0.00
2019-01-30T03:36:52.119Z,0.00
2019-01-30T03:37:52.203Z,0.00
2019-01-30T03:38:52.289Z,0.00
2019-01-30T03:39:52.373Z,0.00
2019-01-30T03:40:52.460Z,0.00
2019-01-30T03:41:52.545Z,0.00
2019-01-30T03:42:52.628Z,0.00
2019-01-30T03:43:52.715Z,0.00
2019-01-30T03:44:52.799Z,0.00
2019-01-30T03:45:52.885Z,0.00
2019-01-30T03:46:52.970Z,0.00
2019-01-30T03:47:53.053Z,0.00
2019-01-30T03:48:53.145Z,0.00
2019-01-30T03:49:53.227Z,0.00
2019-01-30T03:50:53.310Z,0.00
2019-01-30T03:51:53.395Z,0.00
2019-01-30T03:52:53.478Z,0.00
2019-01-30T03:53:53.568Z,0.00
2019-01-30T03:54:53.650Z,0.00
2019-01-30T03:55:53.737Z,0.00
2019-01-30T03:56:53.819Z,0.00
2019-01-30T03:57:53.903Z,0.00
2019-01-30T03:58:53.991Z,0.00
2019-01-30T03:59:54.074Z,0.00
2019-01-30T04:00:54.160Z,0.00
2019-01-30T04:01:54.246Z,0.00
2019-01-30T04:02:54.335Z,0.00
2019-01-30T04:03:54.418Z,0.00
2019-01-30T04:04:54.505Z,0.00
2019-01-30T04:05:54.588Z,0.00
2019-01-30T04:06:54.673Z,0.00
2019-01-30T04:07:54.755Z,0.00
2019-01-30T04:08:54.840Z,0.00
2019-01-30T04:09:54.926Z,0.00
2019-01-30T04:10:55.012Z,0.00
2019-01-30T04:11:55.096Z,0.00
2019-01-30T04:12:55.180Z,0.00
2019-01-30T04:13:55.265Z,0.00
2019-01-30T04:14:55.351Z,0.00
2019-01-30T04:15:55.438Z,0.00
2019-01-30T04:16:55.523Z,0.00
2019-01-30T04:17:55.608Z,0.00
2019-01-30T04:18:55.693Z,0.00
2019-01-30T04:19:55.784Z,0.00
2019-01-30T04:20:55.865Z,0.00
2019-01-30T04:21:55.948Z,0.00
2019-01-30T04:22:56.038Z,0.00
2019-01-30T04:23:56.123Z,0.00
2019-01-30T04:24:56.207Z,0.00
2019-01-30T04:25:56.292Z,0.00
2019-01-30T04:26:56.380Z,0.00
2019-01-30T04:27:56.464Z,0.00
2019-01-30T04:28:56.545Z,0.00
2019-01-30T04:29:56.627Z,0.00
2019-01-30T04:30:56.802Z,0.00
2019-01-30T04:31:56.799Z,0.00
2019-01-30T04:32:56.888Z,0.00
2019-01-30T04:33:56.973Z,0.00
2019-01-30T04:34:57.057Z,0.00
2019-01-30T04:35:57.143Z,0.00
2019-01-30T04:36:57.227Z,0.00
2019-01-30T04:37:57.312Z,0.00
2019-01-30T04:38:57.400Z,0.00
2019-01-30T04:39:57.484Z,0.00
2019-01-30T04:40:57.571Z,0.00
2019-01-30T04:41:57.651Z,0.00
2019-01-30T04:42:57.737Z,0.00
2019-01-30T04:43:57.830Z,0.00
2019-01-30T04:44:57.909Z,0.00
2019-01-30T04:45:57.995Z,0.00
2019-01-30T04:46:58.078Z,0.00
2019-01-30T04:47:58.170Z,0.00
2019-01-30T04:48:58.250Z,0.00
2019-01-30T04:49:58.336Z,0.00
2019-01-30T04:50:58.424Z,0.00
2019-01-30T04:51:58.509Z,0.00
2019-01-30T04:52:58.591Z,0.00
2019-01-30T04:53:58.778Z,0.00
2019-01-30T04:54:58.763Z,0.00
2019-01-30T04:55:58.848Z,0.00
2019-01-30T04:56:58.937Z,0.00
2019-01-30T04:57:59.030Z,0.00
2019-01-30T04:58:59.113Z,0.00
2019-01-30T04:59:59.196Z,0.00
2019-01-30T05:00:59.279Z,0.00
2019-01-30T05:01:59.362Z,0.00
2019-01-30T05:02:59.447Z,0.00
2019-01-30T05:03:59.532Z,0.00
2019-01-30T05:04:59.617Z,0.00
2019-01-30T05:05:59.955Z,0.00
2019-01-30T05:06:59.813Z,0.00
2019-01-30T05:07:59.893Z,0.00
2019-01-30T05:08:59.978Z,0.00
2019-01-30T05:10:00.291Z,0.00
2019-01-30T05:11:00.149Z,0.00
2019-01-30T05:12:00.234Z,0.00
2019-01-30T05:13:00.320Z,0.00
2019-01-30T05:14:01.516Z,0.00
2019-01-30T05:15:00.520Z,0.00
2019-01-30T05:16:00.569Z,0.00
2019-01-30T05:17:00.646Z,0.00
2019-01-30T05:18:00.740Z,0.00
2019-01-30T05:19:00.829Z,0.00
2019-01-30T05:20:00.921Z,0.00
2019-01-30T05:21:01.027Z,0.00
2019-01-30T05:22:01.077Z,0.00
2019-01-30T05:23:01.161Z,0.00
2019-01-30T05:24:01.243Z,0.00
2019-01-30T05:25:01.334Z,0.00
2019-01-30T05:26:01.419Z,0.00
2019-01-30T05:27:01.504Z,0.00
2019-01-30T05:28:01.588Z,0.00
2019-01-30T05:29:01.681Z,0.00
2019-01-30T05:30:01.767Z,0.00
2019-01-30T05:31:01.850Z,4.00
2019-01-30T05:32:01.934Z,4.00
2019-01-30T05:33:02.024Z,8.00
2019-01-30T05:34:02.107Z,4.00
2019-01-30T05:35:02.202Z,4.00
2019-01-30T05:36:02.277Z,4.00
2019-01-30T05:37:02.361Z,4.00
2019-01-30T05:38:02.450Z,4.00
2019-01-30T05:39:02.538Z,4.00
2019-01-30T05:40:02.622Z,4.00
2019-01-30T05:41:02.713Z,4.00
2019-01-30T05:42:02.795Z,4.00
2019-01-30T05:43:02.879Z,4.00
2019-01-30T05:44:02.965Z,4.00
2019-01-30T05:45:03.046Z,4.00
2019-01-30T05:46:03.134Z,4.00
2019-01-30T05:47:03.223Z,4.00
2019-01-30T05:48:03.307Z,4.00
2019-01-30T05:49:03.391Z,4.00
2019-01-30T05:50:03.480Z,4.00
2019-01-30T05:51:03.564Z,4.00
2019-01-30T05:52:03.648Z,4.00
2019-01-30T05:53:03.736Z,4.00
2019-01-30T05:54:03.824Z,4.00
2019-01-30T05:55:03.914Z,4.00
2019-01-30T05:56:03.999Z,4.00
2019-01-30T05:57:04.092Z,4.00
2019-01-30T05:58:04.170Z,4.00
2019-01-30T05:59:04.253Z,4.00
2019-01-30T06:00:04.343Z,4.00
2019-01-30T06:01:04.430Z,4.00
2019-01-30T06:02:11.877Z,4.00
2019-01-30T06:03:04.610Z,4.00
2019-01-30T06:04:04.690Z,4.00
2019-01-30T06:05:04.794Z,4.00
2019-01-30T06:06:04.887Z,4.00
2019-01-30T06:07:04.973Z,4.00
2019-01-30T06:08:05.061Z,4.00
2019-01-30T06:09:05.146Z,4.00
2019-01-30T06:10:05.236Z,4.00
2019-01-30T06:11:05.313Z,4.00
2019-01-30T06:12:05.401Z,4.00
2019-01-30T06:13:05.492Z,4.00
2019-01-30T06:14:05.594Z,4.00
2019-01-30T06:15:05.677Z,4.00
2019-01-30T06:16:05.763Z,4.00
2019-01-30T06:17:05.851Z,4.00
2019-01-30T06:18:05.936Z,4.00
2019-01-30T06:19:06.024Z,4.00
2019-01-30T06:20:06.118Z,4.00
2019-01-30T06:21:06.197Z,4.00
2019-01-30T06:22:06.286Z,4.00
2019-01-30T06:23:06.372Z,4.00
2019-01-30T06:24:06.453Z,4.00
2019-01-30T06:25:06.539Z,4.00
2019-01-30T06:26:06.625Z,8.00
2019-01-30T06:27:06.710Z,8.00
2019-01-30T06:28:06.792Z,4.00
2019-01-30T06:29:06.889Z,4.00
2019-01-30T06:30:07.142Z,4.00
2019-01-30T06:31:07.155Z,4.00
2019-01-30T06:32:07.112Z,8.00
2019-01-30T06:33:07.199Z,8.00
2019-01-30T06:34:07.290Z,4.00
2019-01-30T06:35:07.376Z,8.00
2019-01-30T06:36:07.463Z,8.00
2019-01-30T06:37:07.546Z,4.00
2019-01-30T06:38:07.633Z,8.00
2019-01-30T06:39:07.738Z,12.00
2019-01-30T06:40:07.806Z,8.00
2019-01-30T06:41:07.893Z,12.00
2019-01-30T06:42:07.976Z,8.00
2019-01-30T06:43:08.059Z,12.00
2019-01-30T06:44:08.145Z,8.00
2019-01-30T06:45:08.333Z,12.00
2019-01-30T06:46:08.313Z,16.00
2019-01-30T06:47:08.401Z,16.00
2019-01-30T06:48:08.482Z,48.00
2019-01-30T06:49:08.577Z,24.00
2019-01-30T06:50:08.665Z,28.00
2019-01-30T06:51:08.751Z,32.00
2019-01-30T06:52:08.855Z,40.00
2019-01-30T06:53:08.942Z,40.00
2019-01-30T06:54:09.020Z,44.00
2019-01-30T06:55:09.106Z,48.00
2019-01-30T06:56:09.183Z,56.00
2019-01-30T06:57:09.279Z,60.00
2019-01-30T06:58:09.366Z,64.00
2019-01-30T06:59:09.461Z,68.00
2019-01-30T07:00:09.534Z,76.00
2019-01-30T07:01:09.607Z,84.00
2019-01-30T07:02:09.696Z,88.00
2019-01-30T07:03:09.779Z,96.00
2019-01-30T07:04:09.867Z,100.00
2019-01-30T07:05:09.950Z,112.00
2019-01-30T07:06:10.038Z,116.00
2019-01-30T07:07:10.126Z,124.00
2019-01-30T07:08:10.214Z,136.00
2019-01-30T07:09:10.299Z,144.00
2019-01-30T07:10:10.386Z,152.00
2019-01-30T07:11:11.090Z,164.00
2019-01-30T07:12:10.559Z,176.00
2019-01-30T07:13:10.644Z,192.00
2019-01-30T07:14:10.730Z,204.00
2019-01-30T07:15:10.817Z,216.00
2019-01-30T07:16:10.906Z,224.00
2019-01-30T07:17:10.994Z,236.00
2019-01-30T07:18:11.078Z,248.00
2019-01-30T07:19:11.165Z,260.00
2019-01-30T07:20:11.253Z,276.00
2019-01-30T07:21:11.339Z,280.00
2019-01-30T07:22:11.427Z,296.00
2019-01-30T07:23:11.513Z,304.00
2019-01-30T07:24:11.598Z,312.00
2019-01-30T07:25:11.681Z,328.00
2019-01-30T07:26:11.764Z,344.00
2019-01-30T07:27:11.855Z,352.00
2019-01-30T07:28:11.941Z,380.00
2019-01-30T07:29:12.038Z,400.00
2019-01-30T07:30:12.138Z,412.00
2019-01-30T07:31:12.225Z,428.00
2019-01-30T07:32:12.311Z,456.00
2019-01-30T07:33:12.398Z,476.00
2019-01-30T07:34:12.489Z,504.00
2019-01-30T07:35:12.569Z,528.00
2019-01-30T07:36:12.654Z,552.00
2019-01-30T07:37:12.740Z,576.00
2019-01-30T07:38:12.827Z,600.00
2019-01-30T07:39:12.914Z,620.00
2019-01-30T07:40:13.000Z,640.00
2019-01-30T07:41:13.086Z,656.00
2019-01-30T07:42:13.174Z,668.00
2019-01-30T07:43:13.260Z,684.00
2019-01-30T07:44:13.349Z,696.00
2019-01-30T07:45:13.431Z,708.00
2019-01-30T07:46:13.522Z,716.00
2019-01-30T07:47:13.611Z,724.00
2019-01-30T07:48:13.696Z,732.00
2019-01-30T07:49:13.783Z,744.00
2019-01-30T07:50:13.870Z,756.00
2019-01-30T07:51:15.805Z,764.00
2019-01-30T07:52:14.038Z,768.00
2019-01-30T07:53:14.125Z,780.00
2019-01-30T07:54:14.211Z,788.00
2019-01-30T07:55:14.297Z,796.00
2019-01-30T07:56:14.385Z,808.00
2019-01-30T07:57:14.496Z,816.00
2019-01-30T07:58:14.555Z,824.00
2019-01-30T07:59:14.643Z,836.00
2019-01-30T08:00:14.754Z,844.00
2019-01-30T08:01:14.811Z,848.00
2019-01-30T08:02:14.903Z,852.00
2019-01-30T08:03:14.989Z,864.00
2019-01-30T08:04:15.074Z,872.00
2019-01-30T08:05:15.158Z,884.00
2019-01-30T08:06:15.247Z,892.00
2019-01-30T08:07:15.348Z,904.00
2019-01-30T08:08:15.413Z,908.00
2019-01-30T08:09:15.490Z,920.00
2019-01-30T08:10:15.580Z,924.00
2019-01-30T08:11:15.663Z,932.00
2019-01-30T08:12:15.751Z,932.00
2019-01-30T08:13:15.831Z,924.00
2019-01-30T08:14:15.915Z,924.00
2019-01-30T08:15:16.004Z,944.00
2019-01-30T08:16:16.087Z,912.00
2019-01-30T08:17:16.173Z,900.00
2019-01-30T08:18:16.262Z,892.00
2019-01-30T08:19:16.340Z,896.00
2019-01-30T08:20:16.426Z,908.00
2019-01-30T08:21:16.511Z,912.00
2019-01-30T08:22:16.595Z,912.00
2019-01-30T08:23:17.002Z,928.00
2019-01-30T08:24:16.767Z,944.00
2019-01-30T08:25:16.894Z,960.00
2019-01-30T08:26:16.982Z,980.00
2019-01-30T08:27:17.321Z,1008.00
2019-01-30T08:28:17.209Z,1028.00
2019-01-30T08:29:17.361Z,1060.00
2019-01-30T08:30:22.631Z,1088.00
2019-01-30T08:31:17.629Z,1120.00
2019-01-30T08:32:17.492Z,1152.00
2019-01-30T08:33:17.570Z,1176.00
2019-01-30T08:34:17.623Z,1180.00
2019-01-30T08:35:17.717Z,1232.00
2019-01-30T08:36:17.801Z,1260.00
2019-01-30T08:37:17.878Z,1284.00
2019-01-30T08:38:17.971Z,1316.00
2019-01-30T08:39:18.059Z,1336.00
2019-01-30T08:40:18.143Z,1376.00
2019-01-30T08:41:18.232Z,1412.00
2019-01-30T08:42:18.318Z,1440.00
2019-01-30T08:43:18.399Z,1480.00
2019-01-30T08:44:18.483Z,1544.00
2019-01-30T08:45:18.572Z,1592.00
2019-01-30T08:46:18.659Z,1648.00
2019-01-30T08:47:18.744Z,1752.00
2019-01-30T08:48:18.833Z,1756.00
2019-01-30T08:49:18.911Z,1792.00
2019-01-30T08:50:19.003Z,1832.00
2019-01-30T08:51:19.091Z,1872.00
2019-01-30T08:52:19.180Z,1900.00
2019-01-30T08:53:19.286Z,1920.00
2019-01-30T08:54:19.373Z,1936.00
2019-01-30T08:55:19.478Z,1932.00
2019-01-30T08:56:19.605Z,1928.00
2019-01-30T08:57:19.653Z,1920.00
2019-01-30T08:58:19.740Z,1932.00
2019-01-30T08:59:19.828Z,1960.00
2019-01-30T09:00:19.914Z,1988.00
2019-01-30T09:01:19.999Z,1992.00
2019-01-30T09:02:21.117Z,1984.00
2019-01-30T09:03:20.178Z,1956.00
2019-01-30T09:04:20.267Z,1916.00
2019-01-30T09:05:20.365Z,1900.00
2019-01-30T09:06:20.425Z,1896.00
2019-01-30T09:07:20.534Z,1896.00
2019-01-30T09:08:20.594Z,1888.00
2019-01-30T09:09:20.680Z,1892.00
2019-01-30T09:10:20.794Z,1888.00
2019-01-30T09:11:20.834Z,1880.00
2019-01-30T09:12:20.912Z,1872.00
2019-01-30T09:13:21.022Z,1860.00
2019-01-30T09:14:21.095Z,1856.00
2019-01-30T09:15:21.182Z,1852.00
2019-01-30T09:16:21.269Z,1844.00
2019-01-30T09:17:21.353Z,1820.00
2019-01-30T09:18:21.448Z,1788.00
2019-01-30T09:19:21.532Z,1768.00
2019-01-30T09:20:21.627Z,1728.00
2019-01-30T09:21:21.706Z,1724.00
2019-01-30T09:22:21.791Z,1700.00
2019-01-30T09:23:21.899Z,1760.00
2019-01-30T09:24:21.966Z,1624.00
2019-01-30T09:25:22.056Z,1600.00
2019-01-30T09:26:22.142Z,1608.00
2019-01-30T09:27:24.235Z,1624.00
2019-01-30T09:28:22.338Z,1612.00
2019-01-30T09:29:22.399Z,1588.00
2019-01-30T09:30:22.486Z,1536.00
2019-01-30T09:31:22.575Z,1484.00
2019-01-30T09:32:22.651Z,1420.00
2019-01-30T09:33:25.942Z,1408.00
2019-01-30T09:34:22.827Z,1388.00
2019-01-30T09:35:22.935Z,1388.00
2019-01-30T09:36:23.005Z,1368.00
2019-01-30T09:37:23.102Z,1384.00
2019-01-30T09:38:23.177Z,1364.00
2019-01-30T09:39:23.261Z,1312.00
2019-01-30T09:40:23.356Z,1240.00
2019-01-30T09:41:23.459Z,1204.00
2019-01-30T09:42:23.568Z,1224.00
2019-01-30T09:43:23.678Z,1312.00
2019-01-30T09:44:23.693Z,1420.00
2019-01-30T09:45:23.780Z,1484.00
2019-01-30T09:46:23.903Z,1512.00
2019-01-30T09:47:23.958Z,1580.00
2019-01-30T09:48:24.044Z,1724.00
2019-01-30T09:49:24.136Z,1828.00
2019-01-30T09:50:24.223Z,1852.00
2019-01-30T09:51:24.309Z,1796.00
2019-01-30T09:52:26.872Z,1696.00
2019-01-30T09:53:24.519Z,1580.00
2019-01-30T09:54:24.571Z,1484.00
2019-01-30T09:55:24.659Z,1440.00
2019-01-30T09:56:24.742Z,1412.00
2019-01-30T09:57:24.824Z,1420.00
2019-01-30T09:58:24.918Z,1440.00
2019-01-30T09:59:25.000Z,1396.00
2019-01-30T10:00:25.084Z,1372.00
2019-01-30T10:01:25.175Z,1384.00
2019-01-30T10:02:25.542Z,1340.00
2019-01-30T10:03:35.730Z,1216.00
2019-01-30T10:04:25.461Z,1056.00
2019-01-30T10:05:25.523Z,1076.00
2019-01-30T10:06:25.610Z,1272.00
2019-01-30T10:07:25.694Z,1540.00
2019-01-30T10:08:25.779Z,1804.00
2019-01-30T10:09:25.869Z,2056.00
2019-01-30T10:10:25.957Z,2216.00
2019-01-30T10:11:26.045Z,2140.00
2019-01-30T10:12:26.134Z,2160.00
2019-01-30T10:13:26.216Z,2336.00
2019-01-30T10:14:26.312Z,2604.00
2019-01-30T10:15:26.400Z,2828.00
2019-01-30T10:16:26.488Z,2920.00
2019-01-30T10:17:26.580Z,2940.00
2019-01-30T10:18:26.660Z,2984.00
2019-01-30T10:19:26.750Z,2904.00
2019-01-30T10:20:26.839Z,2908.00
2019-01-30T10:21:26.926Z,2864.00
2019-01-30T10:22:27.017Z,2852.00
2019-01-30T10:23:27.102Z,2856.00
2019-01-30T10:24:28.993Z,2908.00
2019-01-30T10:25:27.273Z,2912.00
2019-01-30T10:26:27.361Z,2820.00
2019-01-30T10:27:27.451Z,2880.00
2019-01-30T10:28:27.534Z,2968.00
2019-01-30T10:29:27.624Z,2988.00
2019-01-30T10:30:27.714Z,3100.00
2019-01-30T10:31:27.799Z,3252.00
2019-01-30T10:32:27.972Z,3484.00
2019-01-30T10:33:27.976Z,3720.00
2019-01-30T10:34:28.059Z,3972.00
2019-01-30T10:35:28.148Z,4232.00
2019-01-30T10:36:28.235Z,4576.00
2019-01-30T10:37:28.345Z,4976.00
2019-01-30T10:38:28.410Z,5152.00
2019-01-30T10:39:28.495Z,5368.00
2019-01-30T10:40:28.583Z,5600.00
2019-01-30T10:41:28.668Z,5328.00
2019-01-30T10:42:28.761Z,5464.00
2019-01-30T10:43:28.850Z,5236.00
2019-01-30T10:44:28.936Z,5168.00
2019-01-30T10:45:29.024Z,5108.00
2019-01-30T10:46:29.109Z,5028.00
2019-01-30T10:47:29.200Z,4908.00
2019-01-30T10:48:29.283Z,4916.00
2019-01-30T10:49:29.374Z,4616.00
2019-01-30T10:50:29.461Z,4404.00
2019-01-30T10:51:29.549Z,4056.00
2019-01-30T10:52:29.635Z,3680.00
2019-01-30T10:53:29.730Z,3408.00
2019-01-30T10:54:29.819Z,3256.00
2019-01-30T10:55:29.897Z,3168.00
2019-01-30T10:56:29.993Z,3084.00
2019-01-30T10:57:30.208Z,3104.00
2019-01-30T10:58:30.183Z,4568.00
2019-01-30T10:59:30.269Z,4820.00
2019-01-30T11:00:30.359Z,5148.00
2019-01-30T11:01:30.446Z,5728.00
2019-01-30T11:02:30.532Z,5264.00
2019-01-30T11:03:30.623Z,5348.00
2019-01-30T11:04:30.713Z,4700.00
2019-01-30T11:05:30.799Z,4596.00
2019-01-30T11:06:30.886Z,4488.00
2019-01-30T11:07:30.976Z,4516.00
2019-01-30T11:08:31.062Z,4620.00
2019-01-30T11:09:31.175Z,4240.00
2019-01-30T11:10:31.231Z,4260.00
2019-01-30T11:11:31.317Z,4212.00
2019-01-30T11:12:31.402Z,4192.00
2019-01-30T11:13:31.490Z,4172.00
2019-01-30T11:14:31.578Z,4172.00
2019-01-30T11:15:31.665Z,4144.00
2019-01-30T11:16:31.792Z,4120.00
2019-01-30T11:17:31.844Z,4136.00
2019-01-30T11:18:31.938Z,4212.00
2019-01-30T11:19:32.022Z,4328.00
2019-01-30T11:20:32.110Z,4856.00
2019-01-30T11:21:32.202Z,5408.00
2019-01-30T11:22:32.275Z,5364.00
2019-01-30T11:23:32.383Z,5256.00
2019-01-30T11:24:32.473Z,4288.00
2019-01-30T11:25:32.561Z,4156.00
2019-01-30T11:26:32.636Z,3976.00
2019-01-30T11:27:32.726Z,3776.00
2019-01-30T11:28:32.816Z,3608.00
2019-01-30T11:29:33.019Z,3452.00
2019-01-30T11:30:35.026Z,3188.00
2019-01-30T11:31:33.086Z,3032.00
2019-01-30T11:32:33.174Z,2868.00
2019-01-30T11:33:33.264Z,2652.00
2019-01-30T11:34:33.359Z,2540.00
2019-01-30T11:35:33.449Z,2540.00
2019-01-30T11:36:33.542Z,2516.00
2019-01-30T11:37:33.624Z,2488.00
2019-01-30T11:38:33.713Z,2440.00
2019-01-30T11:39:33.804Z,2244.00
2019-01-30T11:40:33.893Z,2048.00
2019-01-30T11:41:33.980Z,1884.00
2019-01-30T11:42:34.080Z,1756.00
2019-01-30T11:43:34.159Z,1724.00
2019-01-30T11:44:34.250Z,1728.00
2019-01-30T11:45:34.337Z,1712.00
2019-01-30T11:46:34.428Z,1644.00
2019-01-30T11:47:34.525Z,1592.00
2019-01-30T11:48:34.601Z,1584.00
2019-01-30T11:49:34.690Z,1584.00
2019-01-30T11:50:34.781Z,1632.00
2019-01-30T11:51:34.863Z,1776.00
2019-01-30T11:52:34.964Z,1880.00
2019-01-30T11:53:35.048Z,1964.00
2019-01-30T11:54:38.927Z,1972.00
2019-01-30T11:55:35.220Z,1916.00
2019-01-30T11:56:35.313Z,1884.00
2019-01-30T11:57:35.404Z,1876.00
2019-01-30T11:58:35.485Z,1876.00
2019-01-30T11:59:35.632Z,1924.00
2019-01-30T12:00:35.692Z,1992.00
2019-01-30T12:01:35.781Z,2068.00
2019-01-30T12:02:35.880Z,2136.00
2019-01-30T12:03:35.966Z,2136.00
2019-01-30T12:04:36.064Z,2048.00
2019-01-30T12:05:36.148Z,2108.00
2019-01-30T12:06:36.235Z,2204.00
2019-01-30T12:07:36.320Z,2364.00
2019-01-30T12:08:36.405Z,2476.00
2019-01-30T12:09:36.505Z,2532.00
2019-01-30T12:10:36.585Z,2624.00
2019-01-30T12:11:36.673Z,2784.00
2019-01-30T12:12:36.754Z,2892.00
2019-01-30T12:13:36.852Z,2952.00
2019-01-30T12:14:36.945Z,2944.00
2019-01-30T12:15:38.668Z,2844.00
2019-01-30T12:16:37.119Z,2740.00
2019-01-30T12:17:37.210Z,2664.00
2019-01-30T12:18:37.297Z,2552.00
2019-01-30T12:19:37.390Z,2424.00
2019-01-30T12:20:37.473Z,2304.00
2019-01-30T12:21:37.561Z,2236.00
2019-01-30T12:22:37.649Z,2252.00
2019-01-30T12:23:37.738Z,2296.00
2019-01-30T12:24:37.835Z,2292.00
2019-01-30T12:25:37.929Z,2324.00
2019-01-30T12:26:38.016Z,2280.00
2019-01-30T12:27:38.102Z,2056.00
2019-01-30T12:28:38.191Z,1996.00
2019-01-30T12:29:38.295Z,1948.00
2019-01-30T12:30:38.360Z,1704.00
2019-01-30T12:31:38.456Z,1520.00
2019-01-30T12:32:38.542Z,1604.00
2019-01-30T12:33:38.630Z,1848.00
2019-01-30T12:34:38.718Z,1960.00
2019-01-30T12:35:38.807Z,2024.00
2019-01-30T12:36:38.897Z,1900.00
2019-01-30T12:37:38.981Z,1784.00
2019-01-30T12:38:39.068Z,1668.00
2019-01-30T12:39:39.159Z,1660.00
2019-01-30T12:40:39.244Z,1652.00
2019-01-30T12:41:39.335Z,1748.00
2019-01-30T12:42:39.427Z,1828.00
2019-01-30T12:43:39.609Z,1588.00
2019-01-30T12:44:39.606Z,1464.00
2019-01-30T12:45:39.700Z,1464.00
2019-01-30T12:46:39.782Z,1552.00
2019-01-30T12:47:39.871Z,1860.00